sensor_id;sensor_type;location;lat;lon;timestamp;P1;durP1;ratioP1;P2;durP2;ratioP2
10387;SDS011;5240;51.128;4.566;2023-10-09T00:01:04;13.13;;;8.27;;
10387;SDS011;5240;51.128;4.566;2023-10-09T00:03:38;12.82;;;8.45;;
10387;SDS011;5240;51.128;4.566;2023-10-09T00:06:07;11.18;;;8.20;;
10387;SDS011;5240;51.128;4.566;2023-10-09T00:08:35;13.50;;;7.75;;
10387;SDS011;5240;51.128;4.566;2023-10-09T00:11:04;11.23;;;8.52;;
10387;SDS011;5240;51.128;4.566;2023-10-09T00:13:42;11.68;;;7.80;;
10387;SDS011;5240;51.128;4.566;2023-10-09T00:16:17;14.20;;;8.25;;
10387;SDS011;5240;51.128;4.566;2023-10-09T00:18:49;11.43;;;7.82;;
10387;SDS011;5240;51.128;4.566;2023-10-09T00:21:18;11.75;;;7.75;;
10387;SDS011;5240;51.128;4.566;2023-10-09T00:23:48;9.90;;;7.50;;
10387;SDS011;5240;51.128;4.566;2023-10-09T00:26:20;10.15;;;7.78;;
10387;SDS011;5240;51.128;4.566;2023-10-09T00:28:48;10.77;;;7.95;;
10387;SDS011;5240;51.128;4.566;2023-10-09T00:31:18;14.60;;;8.25;;
10387;SDS011;5240;51.128;4.566;2023-10-09T00:33:55;11.55;;;8.13;;
10387;SDS011;5240;51.128;4.566;2023-10-09T00:36:26;12.30;;;9.20;;
10387;SDS011;5240;51.128;4.566;2023-10-09T00:38:54;11.75;;;7.95;;
10387;SDS011;5240;51.128;4.566;2023-10-09T00:41:26;10.10;;;7.85;;
10387;SDS011;5240;51.128;4.566;2023-10-09T00:43:54;14.05;;;8.82;;
10387;SDS011;5240;51.128;4.566;2023-10-09T00:46:25;12.68;;;8.30;;
10387;SDS011;5240;51.128;4.566;2023-10-09T00:48:54;12.32;;;8.75;;
10387;SDS011;5240;51.128;4.566;2023-10-09T00:51:22;15.90;;;8.65;;
10387;SDS011;5240;51.128;4.566;2023-10-09T00:53:53;17.05;;;9.10;;
10387;SDS011;5240;51.128;4.566;2023-10-09T00:56:24;11.00;;;7.78;;
10387;SDS011;5240;51.128;4.566;2023-10-09T00:59:04;11.32;;;8.68;;
10387;SDS011;5240;51.128;4.566;2023-10-09T01:01:41;13.18;;;9.15;;
10387;SDS011;5240;51.128;4.566;2023-10-09T01:04:21;12.80;;;9.25;;
10387;SDS011;5240;51.128;4.566;2023-10-09T01:06:50;13.27;;;8.65;;
10387;SDS011;5240;51.128;4.566;2023-10-09T01:09:31;13.52;;;8.68;;
10387;SDS011;5240;51.128;4.566;2023-10-09T01:12:02;12.30;;;8.30;;
10387;SDS011;5240;51.128;4.566;2023-10-09T01:14:29;12.77;;;8.48;;
10387;SDS011;5240;51.128;4.566;2023-10-09T01:17:02;14.07;;;8.70;;
10387;SDS011;5240;51.128;4.566;2023-10-09T01:19:33;12.60;;;7.55;;
10387;SDS011;5240;51.128;4.566;2023-10-09T01:22:00;10.75;;;8.20;;
10387;SDS011;5240;51.128;4.566;2023-10-09T01:24:31;11.63;;;8.25;;
10387;SDS011;5240;51.128;4.566;2023-10-09T01:27:00;12.00;;;8.75;;
10387;SDS011;5240;51.128;4.566;2023-10-09T01:29:30;15.80;;;9.02;;
10387;SDS011;5240;51.128;4.566;2023-10-09T01:31:57;10.50;;;7.45;;
10387;SDS011;5240;51.128;4.566;2023-10-09T01:34:28;11.15;;;8.50;;
10387;SDS011;5240;51.128;4.566;2023-10-09T01:37:07;13.43;;;8.35;;
10387;SDS011;5240;51.128;4.566;2023-10-09T01:39:39;11.88;;;8.30;;
10387;SDS011;5240;51.128;4.566;2023-10-09T01:42:07;10.18;;;8.25;;
10387;SDS011;5240;51.128;4.566;2023-10-09T01:44:36;13.45;;;8.45;;
10387;SDS011;5240;51.128;4.566;2023-10-09T01:47:08;10.98;;;8.60;;
10387;SDS011;5240;51.128;4.566;2023-10-09T01:49:39;12.43;;;8.85;;
10387;SDS011;5240;51.128;4.566;2023-10-09T01:52:08;10.57;;;8.15;;
10387;SDS011;5240;51.128;4.566;2023-10-09T01:54:42;14.30;;;8.27;;
10387;SDS011;5240;51.128;4.566;2023-10-09T01:57:12;11.80;;;9.07;;
10387;SDS011;5240;51.128;4.566;2023-10-09T01:59:41;12.13;;;8.80;;
10387;SDS011;5240;51.128;4.566;2023-10-09T02:02:14;14.07;;;8.38;;
10387;SDS011;5240;51.128;4.566;2023-10-09T02:04:51;11.82;;;8.70;;
10387;SDS011;5240;51.128;4.566;2023-10-09T02:07:19;13.07;;;8.70;;
10387;SDS011;5240;51.128;4.566;2023-10-09T02:09:55;17.25;;;9.35;;
10387;SDS011;5240;51.128;4.566;2023-10-09T02:12:22;13.95;;;9.23;;
10387;SDS011;5240;51.128;4.566;2023-10-09T02:14:50;13.02;;;9.20;;
10387;SDS011;5240;51.128;4.566;2023-10-09T02:17:21;13.70;;;8.57;;
10387;SDS011;5240;51.128;4.566;2023-10-09T02:19:53;11.00;;;8.73;;
10387;SDS011;5240;51.128;4.566;2023-10-09T02:22:22;12.18;;;8.63;;
10387;SDS011;5240;51.128;4.566;2023-10-09T02:24:51;11.85;;;8.32;;
10387;SDS011;5240;51.128;4.566;2023-10-09T02:27:25;11.30;;;8.07;;
10387;SDS011;5240;51.128;4.566;2023-10-09T02:30:18;12.50;;;9.18;;
10387;SDS011;5240;51.128;4.566;2023-10-09T02:32:52;14.05;;;8.75;;
10387;SDS011;5240;51.128;4.566;2023-10-09T02:35:31;12.52;;;8.65;;
10387;SDS011;5240;51.128;4.566;2023-10-09T02:38:03;10.82;;;8.73;;
10387;SDS011;5240;51.128;4.566;2023-10-09T02:40:33;12.88;;;9.13;;
10387;SDS011;5240;51.128;4.566;2023-10-09T02:43:22;11.57;;;8.68;;
10387;SDS011;5240;51.128;4.566;2023-10-09T02:45:51;13.27;;;9.05;;
10387;SDS011;5240;51.128;4.566;2023-10-09T02:48:18;16.88;;;9.77;;
10387;SDS011;5240;51.128;4.566;2023-10-09T02:50:50;14.13;;;9.10;;
10387;SDS011;5240;51.128;4.566;2023-10-09T02:53:17;12.02;;;8.82;;
10387;SDS011;5240;51.128;4.566;2023-10-09T02:55:55;13.43;;;8.70;;
10387;SDS011;5240;51.128;4.566;2023-10-09T02:58:39;19.90;;;9.25;;
10387;SDS011;5240;51.128;4.566;2023-10-09T03:01:10;12.73;;;8.20;;
10387;SDS011;5240;51.128;4.566;2023-10-09T03:03:39;13.80;;;8.80;;
10387;SDS011;5240;51.128;4.566;2023-10-09T03:06:10;11.20;;;8.20;;
10387;SDS011;5240;51.128;4.566;2023-10-09T03:08:53;14.35;;;9.38;;
10387;SDS011;5240;51.128;4.566;2023-10-09T03:11:20;12.50;;;9.13;;
10387;SDS011;5240;51.128;4.566;2023-10-09T03:13:49;12.60;;;8.70;;
10387;SDS011;5240;51.128;4.566;2023-10-09T03:16:18;12.40;;;8.82;;
10387;SDS011;5240;51.128;4.566;2023-10-09T03:18:46;13.13;;;9.20;;
10387;SDS011;5240;51.128;4.566;2023-10-09T03:21:13;14.50;;;8.85;;
10387;SDS011;5240;51.128;4.566;2023-10-09T03:23:42;11.18;;;8.93;;
10387;SDS011;5240;51.128;4.566;2023-10-09T03:26:10;11.80;;;9.30;;
10387;SDS011;5240;51.128;4.566;2023-10-09T03:28:37;12.10;;;8.65;;
10387;SDS011;5240;51.128;4.566;2023-10-09T03:31:05;12.90;;;9.35;;
10387;SDS011;5240;51.128;4.566;2023-10-09T03:33:32;13.95;;;9.55;;
10387;SDS011;5240;51.128;4.566;2023-10-09T03:35:59;14.38;;;9.55;;
10387;SDS011;5240;51.128;4.566;2023-10-09T03:38:26;15.93;;;9.32;;
10387;SDS011;5240;51.128;4.566;2023-10-09T03:41:00;11.93;;;9.75;;
10387;SDS011;5240;51.128;4.566;2023-10-09T03:43:31;13.80;;;9.43;;
10387;SDS011;5240;51.128;4.566;2023-10-09T03:46:05;13.90;;;9.70;;
10387;SDS011;5240;51.128;4.566;2023-10-09T03:48:45;12.38;;;10.10;;
10387;SDS011;5240;51.128;4.566;2023-10-09T03:51:13;16.55;;;9.40;;
10387;SDS011;5240;51.128;4.566;2023-10-09T03:53:46;15.88;;;9.55;;
10387;SDS011;5240;51.128;4.566;2023-10-09T03:56:14;13.15;;;9.77;;
10387;SDS011;5240;51.128;4.566;2023-10-09T03:58:43;15.85;;;9.90;;
10387;SDS011;5240;51.128;4.566;2023-10-09T04:01:12;14.00;;;9.75;;
10387;SDS011;5240;51.128;4.566;2023-10-09T04:03:48;14.77;;;10.20;;
10387;SDS011;5240;51.128;4.566;2023-10-09T04:06:15;14.20;;;9.85;;
10387;SDS011;5240;51.128;4.566;2023-10-09T04:08:43;11.95;;;9.88;;
10387;SDS011;5240;51.128;4.566;2023-10-09T04:11:14;14.02;;;9.60;;
10387;SDS011;5240;51.128;4.566;2023-10-09T04:13:48;14.00;;;9.98;;
10387;SDS011;5240;51.128;4.566;2023-10-09T04:16:18;15.52;;;10.07;;
10387;SDS011;5240;51.128;4.566;2023-10-09T04:19:08;14.40;;;10.45;;
10387;SDS011;5240;51.128;4.566;2023-10-09T04:21:36;15.95;;;10.48;;
10387;SDS011;5240;51.128;4.566;2023-10-09T04:24:03;17.85;;;11.10;;
10387;SDS011;5240;51.128;4.566;2023-10-09T04:26:49;13.48;;;9.93;;
10387;SDS011;5240;51.128;4.566;2023-10-09T04:29:22;14.02;;;10.95;;
10387;SDS011;5240;51.128;4.566;2023-10-09T04:31:54;13.85;;;11.43;;
10387;SDS011;5240;51.128;4.566;2023-10-09T04:34:21;17.05;;;11.77;;
10387;SDS011;5240;51.128;4.566;2023-10-09T04:36:48;14.40;;;10.80;;
10387;SDS011;5240;51.128;4.566;2023-10-09T04:39:22;16.23;;;10.57;;
10387;SDS011;5240;51.128;4.566;2023-10-09T04:42:11;15.88;;;11.32;;
10387;SDS011;5240;51.128;4.566;2023-10-09T04:44:56;16.40;;;12.13;;
10387;SDS011;5240;51.128;4.566;2023-10-09T04:47:42;16.90;;;11.32;;
10387;SDS011;5240;51.128;4.566;2023-10-09T04:50:23;16.45;;;11.45;;
10387;SDS011;5240;51.128;4.566;2023-10-09T04:53:12;17.52;;;11.93;;
10387;SDS011;5240;51.128;4.566;2023-10-09T04:55:50;18.70;;;12.35;;
10387;SDS011;5240;51.128;4.566;2023-10-09T04:58:20;17.63;;;12.45;;
10387;SDS011;5240;51.128;4.566;2023-10-09T05:00:51;19.20;;;11.60;;
10387;SDS011;5240;51.128;4.566;2023-10-09T05:03:40;15.50;;;12.40;;
10387;SDS011;5240;51.128;4.566;2023-10-09T05:06:10;18.65;;;12.45;;
10387;SDS011;5240;51.128;4.566;2023-10-09T05:08:57;19.25;;;12.32;;
10387;SDS011;5240;51.128;4.566;2023-10-09T05:11:33;18.13;;;12.40;;
10387;SDS011;5240;51.128;4.566;2023-10-09T05:14:18;16.10;;;11.73;;
10387;SDS011;5240;51.128;4.566;2023-10-09T05:16:52;19.80;;;11.80;;
10387;SDS011;5240;51.128;4.566;2023-10-09T05:19:27;18.55;;;12.32;;
10387;SDS011;5240;51.128;4.566;2023-10-09T05:22:19;17.70;;;12.32;;
10387;SDS011;5240;51.128;4.566;2023-10-09T05:24:55;15.13;;;12.60;;
10387;SDS011;5240;51.128;4.566;2023-10-09T05:27:23;19.90;;;13.45;;
10387;SDS011;5240;51.128;4.566;2023-10-09T05:30:10;18.00;;;12.85;;
10387;SDS011;5240;51.128;4.566;2023-10-09T05:32:59;18.25;;;13.13;;
10387;SDS011;5240;51.128;4.566;2023-10-09T05:35:47;19.98;;;13.60;;
10387;SDS011;5240;51.128;4.566;2023-10-09T05:38:30;19.73;;;14.60;;
10387;SDS011;5240;51.128;4.566;2023-10-09T05:41:01;18.98;;;14.65;;
10387;SDS011;5240;51.128;4.566;2023-10-09T05:43:49;18.92;;;14.27;;
10387;SDS011;5240;51.128;4.566;2023-10-09T05:46:40;20.88;;;14.48;;
10387;SDS011;5240;51.128;4.566;2023-10-09T05:49:27;23.02;;;14.98;;
10387;SDS011;5240;51.128;4.566;2023-10-09T05:52:12;21.17;;;14.85;;
10387;SDS011;5240;51.128;4.566;2023-10-09T05:54:57;23.00;;;15.15;;
10387;SDS011;5240;51.128;4.566;2023-10-09T05:57:41;21.83;;;15.65;;
10387;SDS011;5240;51.128;4.566;2023-10-09T06:00:24;27.63;;;22.05;;
10387;SDS011;5240;51.128;4.566;2023-10-09T06:03:09;23.83;;;18.10;;
10387;SDS011;5240;51.128;4.566;2023-10-09T06:06:03;23.35;;;17.27;;
10387;SDS011;5240;51.128;4.566;2023-10-09T06:08:33;23.98;;;16.90;;
10387;SDS011;5240;51.128;4.566;2023-10-09T06:11:33;22.45;;;16.80;;
10387;SDS011;5240;51.128;4.566;2023-10-09T06:14:06;23.02;;;17.23;;
10387;SDS011;5240;51.128;4.566;2023-10-09T06:16:39;24.83;;;17.80;;
10387;SDS011;5240;51.128;4.566;2023-10-09T06:19:08;26.05;;;18.25;;
10387;SDS011;5240;51.128;4.566;2023-10-09T06:21:37;21.27;;;17.67;;
10387;SDS011;5240;51.128;4.566;2023-10-09T06:24:22;24.15;;;18.48;;
10387;SDS011;5240;51.128;4.566;2023-10-09T06:26:51;29.73;;;18.65;;
10387;SDS011;5240;51.128;4.566;2023-10-09T06:29:37;27.92;;;18.27;;
10387;SDS011;5240;51.128;4.566;2023-10-09T06:32:16;25.25;;;18.50;;
10387;SDS011;5240;51.128;4.566;2023-10-09T06:35:00;26.20;;;18.67;;
10387;SDS011;5240;51.128;4.566;2023-10-09T06:37:43;24.42;;;18.30;;
10387;SDS011;5240;51.128;4.566;2023-10-09T06:40:31;24.02;;;18.10;;
10387;SDS011;5240;51.128;4.566;2023-10-09T06:43:16;21.40;;;17.30;;
10387;SDS011;5240;51.128;4.566;2023-10-09T06:45:52;23.40;;;17.38;;
10387;SDS011;5240;51.128;4.566;2023-10-09T06:48:23;24.48;;;16.15;;
10387;SDS011;5240;51.128;4.566;2023-10-09T06:51:20;23.75;;;17.25;;
10387;SDS011;5240;51.128;4.566;2023-10-09T06:54:06;26.98;;;16.38;;
10387;SDS011;5240;51.128;4.566;2023-10-09T06:56:44;23.67;;;17.38;;
10387;SDS011;5240;51.128;4.566;2023-10-09T06:59:37;20.50;;;16.40;;
10387;SDS011;5240;51.128;4.566;2023-10-09T07:02:51;21.98;;;16.92;;
10387;SDS011;5240;51.128;4.566;2023-10-09T07:05:18;23.33;;;17.58;;
10387;SDS011;5240;51.128;4.566;2023-10-09T07:07:44;23.75;;;16.83;;
10387;SDS011;5240;51.128;4.566;2023-10-09T07:10:20;24.67;;;17.33;;
10387;SDS011;5240;51.128;4.566;2023-10-09T07:12:57;21.58;;;17.00;;
10387;SDS011;5240;51.128;4.566;2023-10-09T07:15:27;22.85;;;17.05;;
10387;SDS011;5240;51.128;4.566;2023-10-09T07:18:13;24.70;;;17.92;;
10387;SDS011;5240;51.128;4.566;2023-10-09T07:20:54;22.55;;;17.33;;
10387;SDS011;5240;51.128;4.566;2023-10-09T07:23:36;25.48;;;16.83;;
10387;SDS011;5240;51.128;4.566;2023-10-09T07:26:13;22.50;;;16.77;;
10387;SDS011;5240;51.128;4.566;2023-10-09T07:28:48;23.70;;;17.50;;
10387;SDS011;5240;51.128;4.566;2023-10-09T07:31:19;21.42;;;16.27;;
10387;SDS011;5240;51.128;4.566;2023-10-09T07:34:06;22.25;;;17.52;;
10387;SDS011;5240;51.128;4.566;2023-10-09T07:36:54;21.23;;;15.10;;
10387;SDS011;5240;51.128;4.566;2023-10-09T07:39:22;25.70;;;16.13;;
10387;SDS011;5240;51.128;4.566;2023-10-09T07:41:54;23.00;;;16.27;;
10387;SDS011;5240;51.128;4.566;2023-10-09T07:44:27;18.63;;;14.90;;
10387;SDS011;5240;51.128;4.566;2023-10-09T07:47:03;23.80;;;14.82;;
10387;SDS011;5240;51.128;4.566;2023-10-09T07:49:55;19.27;;;15.13;;
10387;SDS011;5240;51.128;4.566;2023-10-09T07:52:24;21.15;;;15.40;;
10387;SDS011;5240;51.128;4.566;2023-10-09T07:54:52;23.15;;;15.60;;
10387;SDS011;5240;51.128;4.566;2023-10-09T07:57:26;19.77;;;15.48;;
10387;SDS011;5240;51.128;4.566;2023-10-09T07:59:54;20.38;;;13.93;;
10387;SDS011;5240;51.128;4.566;2023-10-09T08:02:27;21.27;;;15.63;;
10387;SDS011;5240;51.128;4.566;2023-10-09T08:05:03;22.30;;;15.75;;
10387;SDS011;5240;51.128;4.566;2023-10-09T08:07:32;19.85;;;14.60;;
10387;SDS011;5240;51.128;4.566;2023-10-09T08:10:03;22.95;;;15.50;;
10387;SDS011;5240;51.128;4.566;2023-10-09T08:12:45;18.92;;;15.13;;
10387;SDS011;5240;51.128;4.566;2023-10-09T08:15:24;22.73;;;15.57;;
10387;SDS011;5240;51.128;4.566;2023-10-09T08:18:00;18.23;;;14.93;;
10387;SDS011;5240;51.128;4.566;2023-10-09T08:20:36;20.30;;;15.00;;
10387;SDS011;5240;51.128;4.566;2023-10-09T08:23:36;20.00;;;14.75;;
10387;SDS011;5240;51.128;4.566;2023-10-09T08:26:14;19.38;;;14.98;;
10387;SDS011;5240;51.128;4.566;2023-10-09T08:28:54;20.45;;;15.90;;
10387;SDS011;5240;51.128;4.566;2023-10-09T08:31:40;19.88;;;14.52;;
10387;SDS011;5240;51.128;4.566;2023-10-09T08:34:22;20.05;;;15.75;;
10387;SDS011;5240;51.128;4.566;2023-10-09T08:36:52;24.83;;;15.60;;
10387;SDS011;5240;51.128;4.566;2023-10-09T08:39:19;19.05;;;15.18;;
10387;SDS011;5240;51.128;4.566;2023-10-09T08:41:52;19.65;;;14.43;;
10387;SDS011;5240;51.128;4.566;2023-10-09T08:44:23;17.85;;;14.07;;
10387;SDS011;5240;51.128;4.566;2023-10-09T08:46:54;21.08;;;15.27;;
10387;SDS011;5240;51.128;4.566;2023-10-09T08:49:22;18.92;;;15.00;;
10387;SDS011;5240;51.128;4.566;2023-10-09T08:51:51;21.92;;;15.15;;
10387;SDS011;5240;51.128;4.566;2023-10-09T08:54:18;22.02;;;16.50;;
10387;SDS011;5240;51.128;4.566;2023-10-09T08:56:45;28.08;;;19.60;;
10387;SDS011;5240;51.128;4.566;2023-10-09T08:59:16;21.20;;;15.65;;
10387;SDS011;5240;51.128;4.566;2023-10-09T09:01:44;20.65;;;14.98;;
10387;SDS011;5240;51.128;4.566;2023-10-09T09:04:33;19.13;;;14.70;;
10387;SDS011;5240;51.128;4.566;2023-10-09T09:07:03;18.48;;;14.55;;
10387;SDS011;5240;51.128;4.566;2023-10-09T09:09:30;22.83;;;13.75;;
10387;SDS011;5240;51.128;4.566;2023-10-09T09:11:59;23.13;;;14.52;;
10387;SDS011;5240;51.128;4.566;2023-10-09T09:14:35;19.85;;;14.38;;
10387;SDS011;5240;51.128;4.566;2023-10-09T09:17:03;21.73;;;14.02;;
10387;SDS011;5240;51.128;4.566;2023-10-09T09:19:31;17.70;;;13.77;;
10387;SDS011;5240;51.128;4.566;2023-10-09T09:22:04;21.00;;;13.25;;
10387;SDS011;5240;51.128;4.566;2023-10-09T09:24:40;19.13;;;13.40;;
10387;SDS011;5240;51.128;4.566;2023-10-09T09:27:25;17.92;;;13.40;;
10387;SDS011;5240;51.128;4.566;2023-10-09T09:30:22;18.48;;;13.55;;
10387;SDS011;5240;51.128;4.566;2023-10-09T09:32:50;15.80;;;12.68;;
10387;SDS011;5240;51.128;4.566;2023-10-09T09:35:38;20.08;;;13.63;;
10387;SDS011;5240;51.128;4.566;2023-10-09T09:38:09;18.33;;;13.32;;
10387;SDS011;5240;51.128;4.566;2023-10-09T09:40:43;20.35;;;13.85;;
10387;SDS011;5240;51.128;4.566;2023-10-09T09:43:10;19.15;;;12.82;;
10387;SDS011;5240;51.128;4.566;2023-10-09T09:45:46;18.80;;;13.65;;
10387;SDS011;5240;51.128;4.566;2023-10-09T09:48:15;17.27;;;13.32;;
10387;SDS011;5240;51.128;4.566;2023-10-09T09:50:43;20.52;;;12.75;;
10387;SDS011;5240;51.128;4.566;2023-10-09T09:53:13;17.58;;;13.30;;
10387;SDS011;5240;51.128;4.566;2023-10-09T09:55:44;20.88;;;13.10;;
10387;SDS011;5240;51.128;4.566;2023-10-09T09:58:17;15.93;;;12.75;;
10387;SDS011;5240;51.128;4.566;2023-10-09T10:00:45;17.55;;;12.52;;
10387;SDS011;5240;51.128;4.566;2023-10-09T10:03:19;18.95;;;13.02;;
10387;SDS011;5240;51.128;4.566;2023-10-09T10:05:51;18.30;;;13.60;;
10387;SDS011;5240;51.128;4.566;2023-10-09T10:08:23;14.07;;;11.55;;
10387;SDS011;5240;51.128;4.566;2023-10-09T10:10:57;19.58;;;12.63;;
10387;SDS011;5240;51.128;4.566;2023-10-09T10:16:24;20.75;;;12.27;;
10387;SDS011;5240;51.128;4.566;2023-10-09T10:18:59;18.80;;;12.68;;
10387;SDS011;5240;51.128;4.566;2023-10-09T10:21:46;19.15;;;12.38;;
10387;SDS011;5240;51.128;4.566;2023-10-09T10:27:23;18.92;;;12.02;;
10387;SDS011;5240;51.128;4.566;2023-10-09T10:32:59;18.70;;;12.63;;
10387;SDS011;5240;51.128;4.566;2023-10-09T10:35:34;17.90;;;11.63;;
10387;SDS011;5240;51.128;4.566;2023-10-09T10:38:26;15.13;;;11.90;;
10387;SDS011;5240;51.128;4.566;2023-10-09T10:41:12;19.88;;;12.30;;
10387;SDS011;5240;51.128;4.566;2023-10-09T10:43:42;21.20;;;13.05;;
10387;SDS011;5240;51.128;4.566;2023-10-09T10:46:20;18.38;;;11.90;;
10387;SDS011;5240;51.128;4.566;2023-10-09T10:49:03;20.73;;;13.40;;
10387;SDS011;5240;51.128;4.566;2023-10-09T10:51:46;19.15;;;12.05;;
10387;SDS011;5240;51.128;4.566;2023-10-09T10:54:24;20.70;;;13.15;;
10387;SDS011;5240;51.128;4.566;2023-10-09T10:57:20;18.00;;;13.02;;
10387;SDS011;5240;51.128;4.566;2023-10-09T11:00:16;20.73;;;12.85;;
10387;SDS011;5240;51.128;4.566;2023-10-09T11:02:57;23.73;;;12.60;;
10387;SDS011;5240;51.128;4.566;2023-10-09T11:05:38;18.83;;;12.88;;
10387;SDS011;5240;51.128;4.566;2023-10-09T11:08:09;20.10;;;13.20;;
10387;SDS011;5240;51.128;4.566;2023-10-09T11:10:36;19.33;;;13.10;;
10387;SDS011;5240;51.128;4.566;2023-10-09T11:13:25;16.52;;;13.10;;
10387;SDS011;5240;51.128;4.566;2023-10-09T11:16:00;19.05;;;12.65;;
10387;SDS011;5240;51.128;4.566;2023-10-09T11:18:49;19.88;;;12.50;;
10387;SDS011;5240;51.128;4.566;2023-10-09T11:21:16;19.77;;;12.30;;
10387;SDS011;5240;51.128;4.566;2023-10-09T11:23:56;16.20;;;12.48;;
10387;SDS011;5240;51.128;4.566;2023-10-09T11:26:49;18.52;;;13.60;;
10387;SDS011;5240;51.128;4.566;2023-10-09T11:29:24;16.65;;;12.00;;
10387;SDS011;5240;51.128;4.566;2023-10-09T11:32:05;20.63;;;12.10;;
10387;SDS011;5240;51.128;4.566;2023-10-09T11:34:36;16.77;;;13.10;;
10387;SDS011;5240;51.128;4.566;2023-10-09T11:37:11;19.48;;;12.40;;
10387;SDS011;5240;51.128;4.566;2023-10-09T11:39:40;19.73;;;13.82;;
10387;SDS011;5240;51.128;4.566;2023-10-09T11:42:18;16.60;;;13.00;;
10387;SDS011;5240;51.128;4.566;2023-10-09T11:45:02;18.10;;;13.57;;
10387;SDS011;5240;51.128;4.566;2023-10-09T11:47:44;19.02;;;13.63;;
10387;SDS011;5240;51.128;4.566;2023-10-09T11:53:16;21.23;;;14.45;;
10387;SDS011;5240;51.128;4.566;2023-10-09T11:55:58;20.38;;;13.98;;
10387;SDS011;5240;51.128;4.566;2023-10-09T11:58:26;17.45;;;13.70;;
10387;SDS011;5240;51.128;4.566;2023-10-09T12:00:55;19.77;;;13.70;;
10387;SDS011;5240;51.128;4.566;2023-10-09T12:03:29;23.92;;;14.43;;
10387;SDS011;5240;51.128;4.566;2023-10-09T12:05:57;19.42;;;14.20;;
10387;SDS011;5240;51.128;4.566;2023-10-09T12:08:29;19.85;;;14.13;;
10387;SDS011;5240;51.128;4.566;2023-10-09T12:10:57;21.00;;;15.43;;
10387;SDS011;5240;51.128;4.566;2023-10-09T12:13:26;22.25;;;15.25;;
10387;SDS011;5240;51.128;4.566;2023-10-09T12:15:55;20.90;;;14.93;;
10387;SDS011;5240;51.128;4.566;2023-10-09T12:18:23;19.52;;;14.75;;
10387;SDS011;5240;51.128;4.566;2023-10-09T12:20:53;23.35;;;15.68;;
10387;SDS011;5240;51.128;4.566;2023-10-09T12:23:27;22.85;;;16.48;;
10387;SDS011;5240;51.128;4.566;2023-10-09T12:25:57;21.42;;;16.80;;
10387;SDS011;5240;51.128;4.566;2023-10-09T12:28:25;23.60;;;15.05;;
10387;SDS011;5240;51.128;4.566;2023-10-09T12:30:53;20.25;;;16.00;;
10387;SDS011;5240;51.128;4.566;2023-10-09T12:33:22;29.25;;;18.13;;
10387;SDS011;5240;51.128;4.566;2023-10-09T12:35:52;23.23;;;17.02;;
10387;SDS011;5240;51.128;4.566;2023-10-09T12:38:25;21.83;;;16.58;;
10387;SDS011;5240;51.128;4.566;2023-10-09T12:41:00;22.65;;;16.88;;
10387;SDS011;5240;51.128;4.566;2023-10-09T12:43:33;24.05;;;16.20;;
10387;SDS011;5240;51.128;4.566;2023-10-09T12:46:04;25.52;;;17.48;;
10387;SDS011;5240;51.128;4.566;2023-10-09T12:48:33;21.77;;;15.93;;
10387;SDS011;5240;51.128;4.566;2023-10-09T12:51:01;22.48;;;17.70;;
10387;SDS011;5240;51.128;4.566;2023-10-09T12:53:31;23.55;;;16.33;;
10387;SDS011;5240;51.128;4.566;2023-10-09T12:55:59;23.58;;;15.43;;
10387;SDS011;5240;51.128;4.566;2023-10-09T12:58:25;28.13;;;16.63;;
10387;SDS011;5240;51.128;4.566;2023-10-09T13:00:53;21.88;;;17.08;;
10387;SDS011;5240;51.128;4.566;2023-10-09T13:03:19;26.95;;;16.83;;
10387;SDS011;5240;51.128;4.566;2023-10-09T13:05:53;24.05;;;16.08;;
10387;SDS011;5240;51.128;4.566;2023-10-09T13:08:21;17.73;;;15.07;;
10387;SDS011;5240;51.128;4.566;2023-10-09T13:10:50;24.17;;;14.85;;
10387;SDS011;5240;51.128;4.566;2023-10-09T13:13:24;23.85;;;15.90;;
10387;SDS011;5240;51.128;4.566;2023-10-09T13:16:04;20.65;;;14.70;;
10387;SDS011;5240;51.128;4.566;2023-10-09T13:18:32;22.60;;;14.30;;
10387;SDS011;5240;51.128;4.566;2023-10-09T13:21:01;23.05;;;14.30;;
10387;SDS011;5240;51.128;4.566;2023-10-09T13:23:29;19.33;;;14.02;;
10387;SDS011;5240;51.128;4.566;2023-10-09T13:26:04;20.77;;;14.25;;
10387;SDS011;5240;51.128;4.566;2023-10-09T13:28:43;22.02;;;14.85;;
10387;SDS011;5240;51.128;4.566;2023-10-09T13:31:11;18.50;;;13.07;;
10387;SDS011;5240;51.128;4.566;2023-10-09T13:33:40;26.50;;;20.40;;
10387;SDS011;5240;51.128;4.566;2023-10-09T13:36:09;20.52;;;13.30;;
10387;SDS011;5240;51.128;4.566;2023-10-09T13:38:42;21.27;;;11.70;;
10387;SDS011;5240;51.128;4.566;2023-10-09T13:41:10;18.00;;;11.23;;
10387;SDS011;5240;51.128;4.566;2023-10-09T13:43:39;18.48;;;12.48;;
10387;SDS011;5240;51.128;4.566;2023-10-09T13:46:08;17.40;;;12.48;;
10387;SDS011;5240;51.128;4.566;2023-10-09T13:48:37;17.45;;;11.13;;
10387;SDS011;5240;51.128;4.566;2023-10-09T13:51:06;19.67;;;10.90;;
10387;SDS011;5240;51.128;4.566;2023-10-09T13:53:39;20.20;;;11.48;;
10387;SDS011;5240;51.128;4.566;2023-10-09T13:56:11;17.58;;;11.38;;
10387;SDS011;5240;51.128;4.566;2023-10-09T13:58:43;14.30;;;11.23;;
10387;SDS011;5240;51.128;4.566;2023-10-09T14:01:13;17.20;;;11.63;;
10387;SDS011;5240;51.128;4.566;2023-10-09T14:03:53;18.00;;;11.65;;
10387;SDS011;5240;51.128;4.566;2023-10-09T14:06:22;15.85;;;12.10;;
10387;SDS011;5240;51.128;4.566;2023-10-09T14:08:57;17.80;;;11.55;;
10387;SDS011;5240;51.128;4.566;2023-10-09T14:11:24;17.63;;;12.43;;
10387;SDS011;5240;51.128;4.566;2023-10-09T14:13:51;15.00;;;11.20;;
10387;SDS011;5240;51.128;4.566;2023-10-09T14:16:18;19.63;;;12.15;;
10387;SDS011;5240;51.128;4.566;2023-10-09T14:18:58;21.38;;;13.52;;
10387;SDS011;5240;51.128;4.566;2023-10-09T14:21:27;20.48;;;12.88;;
10387;SDS011;5240;51.128;4.566;2023-10-09T14:23:57;19.35;;;12.15;;
10387;SDS011;5240;51.128;4.566;2023-10-09T14:26:24;24.05;;;13.10;;
10387;SDS011;5240;51.128;4.566;2023-10-09T14:28:52;19.98;;;14.27;;
10387;SDS011;5240;51.128;4.566;2023-10-09T14:31:21;21.85;;;14.13;;
10387;SDS011;5240;51.128;4.566;2023-10-09T14:33:53;23.73;;;17.88;;
10387;SDS011;5240;51.128;4.566;2023-10-09T14:36:20;23.70;;;15.55;;
10387;SDS011;5240;51.128;4.566;2023-10-09T14:38:50;24.95;;;15.95;;
10387;SDS011;5240;51.128;4.566;2023-10-09T14:41:20;25.98;;;16.48;;
10387;SDS011;5240;51.128;4.566;2023-10-09T14:43:49;23.05;;;15.77;;
10387;SDS011;5240;51.128;4.566;2023-10-09T14:46:17;26.00;;;15.93;;
10387;SDS011;5240;51.128;4.566;2023-10-09T14:48:50;23.08;;;17.80;;
10387;SDS011;5240;51.128;4.566;2023-10-09T14:51:18;23.20;;;16.98;;
10387;SDS011;5240;51.128;4.566;2023-10-09T14:53:54;29.25;;;18.20;;
10387;SDS011;5240;51.128;4.566;2023-10-09T14:56:23;22.20;;;16.73;;
10387;SDS011;5240;51.128;4.566;2023-10-09T14:58:56;23.80;;;16.80;;
10387;SDS011;5240;51.128;4.566;2023-10-09T15:01:24;23.23;;;16.35;;
10387;SDS011;5240;51.128;4.566;2023-10-09T15:03:54;25.05;;;17.27;;
10387;SDS011;5240;51.128;4.566;2023-10-09T15:06:22;23.45;;;17.13;;
10387;SDS011;5240;51.128;4.566;2023-10-09T15:08:53;24.42;;;16.88;;
10387;SDS011;5240;51.128;4.566;2023-10-09T15:11:22;28.85;;;17.30;;
10387;SDS011;5240;51.128;4.566;2023-10-09T15:13:50;23.40;;;16.98;;
10387;SDS011;5240;51.128;4.566;2023-10-09T15:16:18;23.13;;;16.10;;
10387;SDS011;5240;51.128;4.566;2023-10-09T15:18:47;25.98;;;16.88;;
10387;SDS011;5240;51.128;4.566;2023-10-09T15:21:17;30.85;;;19.20;;
10387;SDS011;5240;51.128;4.566;2023-10-09T15:23:48;24.05;;;17.83;;
10387;SDS011;5240;51.128;4.566;2023-10-09T15:26:17;26.23;;;17.20;;
10387;SDS011;5240;51.128;4.566;2023-10-09T15:28:45;24.92;;;17.20;;
10387;SDS011;5240;51.128;4.566;2023-10-09T15:31:12;26.63;;;17.08;;